Share

Avery, TX

Clarksville (KLBR) Elev 440 ft | 33.59 °N, 95.06 °W | Change Station

Current weather conditions updated 23 minutes ago

Clear
Clear
66 °F
Feels Like 66 °F
N
5
Wind Variable Wind from ENE
Sunrise 6:45 AM
Sunset 7:52 PM
Moon Waning Gibbous

Today is forecast to be Warmer than yesterday.

Pressure 30.26 in
Visibility 10.0 miles
Clouds Clear
Dew Point 48 °F
Humidity 51%
Rainfall 0.00 in
Snow Depth Not available.
UV 7 out of 16
Pollen 8.70 out of 12
Air Quality Not available.
Flu Activity Local Activity
METAR KLBR 181535Z AUTO 06004KT 10SM CLR 19/09 A3026 RMK AO1 T01910087

More Conditions Fewer Conditions

Pressure 30.26 in
Visibility 10.0 miles
Clouds Clear
Dew Point 48 °F
Humidity 51%
Rainfall 0.00 in
Snow Depth Not available.
UV 7 out of 16
Pollen 8.70 out of 12
Air Quality Not available.
Flu Activity Local Activity
METAR KLBR 181535Z AUTO 06004KT 10SM CLR 19/09 A3026 RMK AO1 T01910087

More Conditions Fewer Conditions

10-Day Forecast

Almanac

Astronomy

Apr. 18, 2014 Rise Set
Actual Time 6:45 AM CDT 7:52 PM CDT
Civil Twilight 6:19 AM CDT 8:18 PM CDT
Nautical Twilight 5:48 AM CDT 8:48 PM CDT
Astronomical Twilight 5:17 AM CDT 9:20 PM CDT
Moon 11:31 PM CDT 9:14 AM CDT
Length of Visible Light 13h 58m
Length of Day
13h 07m
Tomorrow will be 1m 56s longer.
Waning Gibbous, 87% of the Moon is Illuminated
Today
Waning Gibbous
Apr 22
Last Quarter
Apr 29
New
May 6
First Quarter
May 14
Full

Today's Extremes

State Highs State Lows

Community

  • What's for Lunch?
    What's for Lunch?
  • SUNRISE THROUGH THE TREES.
    SUNRISE THROUGH THE TREES.
  • Dog Wood Blossoms
    Dog Wood Blossoms
  • Morning Light
    Morning Light
  • New Day
    New Day

WunderPhotos

Upload Photos

1,702,397 photos uploaded!

Nearby

Snow Depth

Station Depth Elevation
No new snow has been reported.

Coastal Water Temperatures

Place Temperature
No Stations Reporting

Earthquake Activity

City Distance Mag. Time & Date
No recent earthquake activity has been reported nearby.
Minimum magnitude displayed is 2.5.

Nearby Weather Stations

Station Location Temp. Windchill Dew Point Humidity Wind Precip. Elev Updated Type
De Kalb, Texas, De Kalb, TX 53.5 °F - 50 °F 89% NNE  at  0.0 mph 0.00 in / hr 443 ft 8:17 AM CDT Rapid Fire
RAWS CLARKSVILLE TX, Clarksville, TX 54 °F - 49 °F 82% NE  at  3 mph 0.00 in / hr 479 ft 8:07 AM CDT MADIS
Glass Club Lake, Omaha, TX 63.8 °F - 51 °F 62% ENE  at  5.0 mph 0.00 in / hr 374 ft 10:55 AM CDT Normal
Fuller Farms, Haworth, OK 67.3 °F - 49 °F 52% NNE  at  7.0 mph 0.00 in / hr 472 ft 10:58 AM CDT Rapid Fire
MesoWest MAUD , Maud, TX 49 °F 49 °F - - North  at  - 0.00 in / hr 251 ft 7:30 AM CDT MADIS

Show More Stations Show Fewer Stations

What do you think?

We're not finished. Please let us know what you like, what you don't like, and what you are still missing.